Time;durP1;ratioP1;P1;durP2;ratioP2;P2;SDS_P1;SDS_P2;PMS_P1;PMS_P2;Temp;Humidity;BMP_temperature;BMP_pressure;BME280_temperature;BME280_humidity;BME280_pressure;Samples;Min_cycle;Max_cycle;Signal;HPM_P1;HPM_P2
2023/03/18 00:00:11;;;;;;;;;;;7.10;99.90;;;;;;5105557;28;19951;-69
2023/03/18 00:02:40;;;;;;;;;;;7.10;99.90;;;;;;5104824;28;19963;-69
2023/03/18 00:05:08;;;;;;;;;;;7.10;99.90;;;;;;5110376;28;20176;-69
2023/03/18 00:07:35;;;;;;;;;;;7.00;99.90;;;;;;5123445;28;19926;-69
2023/03/18 00:10:02;;;;;;;;;;;7.00;99.90;;;;;;5110504;28;20176;-69
2023/03/18 00:12:29;;;;;;;;;;;7.00;99.90;;;;;;5119618;28;19985;-69
2023/03/18 00:14:55;;;;;;;;;;;6.90;99.90;;;;;;5124401;28;19928;-69
2023/03/18 00:17:22;;;;;;;;;;;6.90;99.90;;;;;;5123826;28;19974;-68
2023/03/18 00:19:50;;;;;;;;;;;6.90;99.90;;;;;;5124339;28;19919;-69
2023/03/18 00:22:17;;;;;;;;;;;6.90;99.90;;;;;;5124535;28;19926;-69
2023/03/18 00:24:44;;;;;;;;;;;6.90;99.90;;;;;;5123761;28;19926;-69
2023/03/18 00:27:11;;;;;;;;;;;6.90;99.90;;;;;;5121701;28;19972;-68
2023/03/18 00:29:38;;;;;;;;;;;6.90;99.90;;;;;;5124111;28;19987;-68
2023/03/18 00:32:06;;;;;;;;;;;6.80;99.90;;;;;;5124255;28;19965;-68
2023/03/18 00:34:33;;;;;;;;;;;6.70;99.90;;;;;;5123872;28;19951;-69
2023/03/18 00:37:03;;;;;;;;;;;6.70;99.90;;;;;;5122953;28;20421;-69
2023/03/18 00:39:31;;;;;;;;;;;6.70;99.90;;;;;;5123819;28;20254;-69
2023/03/18 00:41:58;;;;;;;;;;;6.70;99.90;;;;;;5123806;28;19919;-69
2023/03/18 00:44:25;;;;;;;;;;;6.60;99.90;;;;;;5124292;28;19956;-69
2023/03/18 00:46:51;;;;;;;;;;;6.50;99.90;;;;;;5123419;28;19927;-68
2023/03/18 00:49:18;;;;;;;;;;;6.50;99.90;;;;;;5124254;28;19926;-69
2023/03/18 00:51:45;;;;;;;;;;;6.50;99.90;;;;;;5123786;28;19924;-68
2023/03/18 00:54:16;;;;;;;;;;;6.50;99.90;;;;;;5123880;28;19951;-68
2023/03/18 00:56:43;;;;;;;;;;;6.60;99.90;;;;;;5123236;28;19942;-69
2023/03/18 00:59:10;;;;;;;;;;;6.50;99.90;;;;;;5124177;28;19990;-68
2023/03/18 01:01:37;;;;;;;;;;;6.50;99.90;;;;;;5123707;28;19920;-68
2023/03/18 01:04:05;;;;;;;;;;;6.50;99.90;;;;;;5106479;28;19983;-68
2023/03/18 01:06:33;;;;;;;;;;;6.50;99.90;;;;;;5102554;28;19970;-69
2023/03/18 01:09:01;;;;;;;;;;;6.50;99.90;;;;;;5109667;28;19926;-68
2023/03/18 01:11:29;;;;;;;;;;;6.50;99.90;;;;;;5123721;28;19919;-68
2023/03/18 01:13:58;;;;;;;;;;;6.40;99.90;;;;;;5123550;28;19919;-68
2023/03/18 01:16:24;;;;;;;;;;;6.40;99.90;;;;;;5122554;28;19924;-68
2023/03/18 01:18:52;;;;;;;;;;;6.30;99.90;;;;;;5109985;28;20259;-69
2023/03/18 01:21:19;;;;;;;;;;;6.30;99.90;;;;;;5105720;28;20250;-70
2023/03/18 01:23:45;;;;;;;;;;;6.40;99.90;;;;;;5123591;28;19920;-69
2023/03/18 01:26:12;;;;;;;;;;;6.30;99.90;;;;;;5122436;28;19920;-68
2023/03/18 01:28:41;;;;;;;;;;;6.30;99.90;;;;;;5123120;28;19950;-69
2023/03/18 01:31:11;;;;;;;;;;;6.30;99.90;;;;;;5122013;28;19926;-69
2023/03/18 01:33:39;;;;;;;;;;;6.20;99.90;;;;;;5107367;28;19948;-68
2023/03/18 01:36:06;;;;;;;;;;;6.10;99.90;;;;;;5102469;28;19928;-68
2023/03/18 01:38:33;;;;;;;;;;;6.10;99.90;;;;;;5106451;28;19927;-69
2023/03/18 01:41:01;;;;;;;;;;;6.00;99.90;;;;;;5106778;28;19955;-69
2023/03/18 01:43:29;;;;;;;;;;;6.10;99.90;;;;;;5116886;28;19920;-69
2023/03/18 01:45:58;;;;;;;;;;;6.00;99.90;;;;;;5126988;28;19934;-69
2023/03/18 01:48:27;;;;;;;;;;;6.00;99.90;;;;;;5124242;28;19955;-69
2023/03/18 01:50:55;;;;;;;;;;;5.90;99.90;;;;;;5127368;28;19991;-69
2023/03/18 01:53:22;;;;;;;;;;;5.90;99.90;;;;;;5127140;28;19920;-68
2023/03/18 01:55:51;;;;;;;;;;;5.90;99.90;;;;;;5126884;28;19955;-68
2023/03/18 01:58:19;;;;;;;;;;;5.90;99.90;;;;;;5126683;28;19930;-68
2023/03/18 02:00:50;;;;;;;;;;;5.90;99.90;;;;;;5126977;28;20123;-68
2023/03/18 02:03:18;;;;;;;;;;;5.90;99.90;;;;;;5127195;28;19973;-68
2023/03/18 02:05:44;;;;;;;;;;;5.80;99.90;;;;;;5118460;28;19979;-68
2023/03/18 02:08:11;;;;;;;;;;;5.90;99.90;;;;;;5112074;28;19986;-68
2023/03/18 02:10:38;;;;;;;;;;;5.80;99.90;;;;;;5126539;28;19942;-68
2023/03/18 02:13:06;;;;;;;;;;;5.80;99.90;;;;;;5126438;28;19963;-68
2023/03/18 02:15:34;;;;;;;;;;;5.80;99.90;;;;;;5126724;28;19920;-69
2023/03/18 02:18:04;;;;;;;;;;;5.80;99.90;;;;;;5125867;28;19990;-69
2023/03/18 02:20:38;;;;;;;;;;;5.80;99.90;;;;;;5126689;28;19951;-68
2023/03/18 02:23:09;;;;;;;;;;;5.80;99.90;;;;;;5126099;28;19920;-69
2023/03/18 02:25:39;;;;;;;;;;;5.70;99.90;;;;;;5125861;28;19951;-69
2023/03/18 02:28:09;;;;;;;;;;;5.80;99.90;;;;;;5125458;28;20226;-69
2023/03/18 02:30:37;;;;;;;;;;;5.80;99.90;;;;;;5126427;28;19920;-70
2023/03/18 02:33:05;;;;;;;;;;;5.70;99.90;;;;;;5126135;28;19943;-69
2023/03/18 02:35:32;;;;;;;;;;;5.70;99.90;;;;;;5126321;28;20119;-70
2023/03/18 02:37:58;;;;;;;;;;;5.80;99.90;;;;;;5117621;28;19920;-69
2023/03/18 02:40:27;;;;;;;;;;;5.70;99.90;;;;;;5105778;28;19988;-69
2023/03/18 02:42:56;;;;;;;;;;;5.70;99.90;;;;;;5105756;28;20146;-70
2023/03/18 02:45:32;;;;;;;;;;;5.60;99.90;;;;;;5105775;28;19927;-69
2023/03/18 02:48:04;;;;;;;;;;;5.70;99.90;;;;;;5102331;28;19920;-68
2023/03/18 02:50:31;;;;;;;;;;;5.70;99.90;;;;;;5105370;28;20275;-68
2023/03/18 02:52:59;;;;;;;;;;;5.60;99.90;;;;;;5105357;28;19951;-68
2023/03/18 02:55:25;;;;;;;;;;;5.60;99.90;;;;;;5105352;28;20298;-69
2023/03/18 02:57:52;;;;;;;;;;;5.60;99.90;;;;;;5104462;28;19920;-68
2023/03/18 03:00:19;;;;;;;;;;;5.60;99.90;;;;;;5105528;28;19955;-68
2023/03/18 03:02:47;;;;;;;;;;;5.60;99.90;;;;;;5105175;28;19970;-68
2023/03/18 03:05:14;;;;;;;;;;;5.50;99.90;;;;;;5105373;28;19942;-68
2023/03/18 03:07:41;;;;;;;;;;;5.50;99.90;;;;;;5104389;28;20230;-68
2023/03/18 03:10:08;;;;;;;;;;;5.50;99.90;;;;;;5105338;28;19981;-68
2023/03/18 03:12:36;;;;;;;;;;;5.50;99.90;;;;;;5118295;28;19924;-68
2023/03/18 03:15:03;;;;;;;;;;;5.50;99.90;;;;;;5125343;28;19920;-68
2023/03/18 03:17:30;;;;;;;;;;;5.40;99.90;;;;;;5124717;28;19962;-68
2023/03/18 03:19:58;;;;;;;;;;;5.40;99.90;;;;;;5125535;28;19987;-68
2023/03/18 03:22:25;;;;;;;;;;;5.40;99.90;;;;;;5125516;28;19942;-69
2023/03/18 03:24:52;;;;;;;;;;;5.40;99.90;;;;;;5124852;28;20128;-67
2023/03/18 03:27:19;;;;;;;;;;;5.30;99.90;;;;;;5123926;28;19951;-68
2023/03/18 03:29:45;;;;;;;;;;;5.30;99.90;;;;;;5104522;28;20486;-68
2023/03/18 03:32:12;;;;;;;;;;;5.40;99.90;;;;;;5104482;28;19926;-68
2023/03/18 03:34:39;;;;;;;;;;;5.40;99.90;;;;;;5104586;28;19951;-69
2023/03/18 03:37:07;;;;;;;;;;;5.30;99.90;;;;;;5104239;28;19952;-68
2023/03/18 03:39:34;;;;;;;;;;;5.20;99.90;;;;;;5104355;28;19920;-68
2023/03/18 03:42:01;;;;;;;;;;;5.30;99.90;;;;;;5104629;28;20183;-68
2023/03/18 03:44:27;;;;;;;;;;;5.30;99.90;;;;;;5104612;28;19956;-68
2023/03/18 03:46:56;;;;;;;;;;;5.30;99.90;;;;;;5101289;28;19995;-70
2023/03/18 03:49:23;;;;;;;;;;;5.30;99.90;;;;;;5104617;28;19928;-68
2023/03/18 03:51:49;;;;;;;;;;;5.30;99.90;;;;;;5104503;28;19920;-68
2023/03/18 03:54:18;;;;;;;;;;;5.30;99.90;;;;;;5104468;28;19927;-68
2023/03/18 03:56:45;;;;;;;;;;;5.30;99.90;;;;;;5104180;28;19924;-68
2023/03/18 03:59:11;;;;;;;;;;;5.30;99.90;;;;;;5104131;28;19920;-68
2023/03/18 04:01:38;;;;;;;;;;;5.30;99.90;;;;;;5103598;28;19927;-68
2023/03/18 04:04:05;;;;;;;;;;;5.30;99.90;;;;;;5122482;28;20234;-69
2023/03/18 04:06:32;;;;;;;;;;;5.20;99.90;;;;;;5123833;28;19982;-68
2023/03/18 04:08:59;;;;;;;;;;;5.20;99.90;;;;;;5124664;28;19984;-68
2023/03/18 04:11:27;;;;;;;;;;;5.10;99.90;;;;;;5124680;28;19920;-68
2023/03/18 04:13:53;;;;;;;;;;;5.10;99.90;;;;;;5124337;28;19920;-68
2023/03/18 04:16:20;;;;;;;;;;;5.10;99.90;;;;;;5123911;28;19962;-68
2023/03/18 04:18:50;;;;;;;;;;;5.10;99.90;;;;;;5121689;28;19939;-69
2023/03/18 04:21:16;;;;;;;;;;;5.10;99.90;;;;;;5124235;28;19983;-68
2023/03/18 04:23:43;;;;;;;;;;;5.10;99.90;;;;;;5123896;28;19919;-68
2023/03/18 04:26:11;;;;;;;;;;;5.00;99.90;;;;;;5123801;28;20140;-67
2023/03/18 04:28:40;;;;;;;;;;;5.00;99.90;;;;;;5118264;28;19987;-68
2023/03/18 04:31:06;;;;;;;;;;;5.00;99.90;;;;;;5103901;28;19958;-68
2023/03/18 04:33:33;;;;;;;;;;;5.00;99.90;;;;;;5103740;28;19951;-68
2023/03/18 04:36:00;;;;;;;;;;;5.00;99.90;;;;;;5103494;28;19979;-68
2023/03/18 04:38:27;;;;;;;;;;;5.00;99.90;;;;;;5103259;28;20169;-67
2023/03/18 04:40:53;;;;;;;;;;;5.00;99.90;;;;;;5103661;28;19924;-67
2023/03/18 04:43:21;;;;;;;;;;;5.00;99.90;;;;;;5103764;28;20364;-68
2023/03/18 04:45:49;;;;;;;;;;;4.90;99.90;;;;;;5103263;28;19955;-68
2023/03/18 04:48:16;;;;;;;;;;;4.90;99.90;;;;;;5100603;28;19952;-68
2023/03/18 04:50:43;;;;;;;;;;;4.90;99.90;;;;;;5107183;28;20146;-68
2023/03/18 04:53:10;;;;;;;;;;;4.80;99.90;;;;;;5103411;28;19986;-68
2023/03/18 04:55:36;;;;;;;;;;;4.80;99.90;;;;;;5103303;28;19927;-68
2023/03/18 04:58:03;;;;;;;;;;;4.80;99.90;;;;;;5103434;28;20115;-68
2023/03/18 05:00:30;;;;;;;;;;;4.80;99.90;;;;;;5103697;28;20022;-67
2023/03/18 05:02:58;;;;;;;;;;;4.80;99.90;;;;;;5103501;28;19959;-68
2023/03/18 05:05:25;;;;;;;;;;;4.80;99.90;;;;;;5103082;28;20219;-68
2023/03/18 05:07:51;;;;;;;;;;;4.80;99.90;;;;;;5102821;28;19983;-68
2023/03/18 05:10:18;;;;;;;;;;;4.80;99.90;;;;;;5122415;28;20231;-68
2023/03/18 05:12:45;;;;;;;;;;;4.80;99.90;;;;;;5127661;28;19919;-68
2023/03/18 05:15:13;;;;;;;;;;;4.80;99.90;;;;;;5127647;28;19920;-68
2023/03/18 05:17:40;;;;;;;;;;;4.80;99.90;;;;;;5126830;28;19927;-70
2023/03/18 05:20:09;;;;;;;;;;;4.70;99.90;;;;;;5107425;28;19927;-69
2023/03/18 05:22:35;;;;;;;;;;;4.60;99.90;;;;;;5107387;28;19927;-69
2023/03/18 05:25:02;;;;;;;;;;;4.60;99.90;;;;;;5113111;28;19947;-68
2023/03/18 05:27:29;;;;;;;;;;;4.60;99.90;;;;;;5127093;28;19954;-68
2023/03/18 05:29:55;;;;;;;;;;;4.60;99.90;;;;;;5127672;28;20225;-68
2023/03/18 05:32:22;;;;;;;;;;;4.50;99.90;;;;;;5127648;28;20149;-68
2023/03/18 05:34:49;;;;;;;;;;;4.50;99.90;;;;;;5127446;28;19927;-69
2023/03/18 05:37:17;;;;;;;;;;;4.40;99.90;;;;;;5127281;28;19920;-68
2023/03/18 05:39:44;;;;;;;;;;;4.40;99.90;;;;;;5127537;28;19946;-68
2023/03/18 05:42:11;;;;;;;;;;;4.40;99.90;;;;;;5127208;28;19959;-68
2023/03/18 05:44:39;;;;;;;;;;;4.40;99.90;;;;;;5126982;28;19920;-68
2023/03/18 05:47:06;;;;;;;;;;;4.40;99.90;;;;;;5123808;28;19927;-68
2023/03/18 05:49:32;;;;;;;;;;;4.40;99.90;;;;;;5121789;28;20207;-67
2023/03/18 05:52:00;;;;;;;;;;;4.50;99.90;;;;;;5106830;28;19958;-68
2023/03/18 05:54:28;;;;;;;;;;;4.50;99.90;;;;;;5106795;28;19920;-70
2023/03/18 05:56:54;;;;;;;;;;;4.40;99.90;;;;;;5109588;28;19920;-68
2023/03/18 05:59:22;;;;;;;;;;;4.50;99.90;;;;;;5122429;28;19928;-68
2023/03/18 06:01:49;;;;;;;;;;;4.50;99.90;;;;;;5127062;28;19992;-68
2023/03/18 06:04:17;;;;;;;;;;;4.50;99.90;;;;;;5127164;28;19952;-68
2023/03/18 06:06:43;;;;;;;;;;;4.50;99.90;;;;;;5126014;28;19920;-67
2023/03/18 06:09:14;;;;;;;;;;;4.50;99.90;;;;;;5116980;28;19979;-68
2023/03/18 06:11:42;;;;;;;;;;;4.50;99.90;;;;;;5105978;28;19987;-68
2023/03/18 06:14:09;;;;;;;;;;;4.60;99.90;;;;;;5106212;28;19987;-69
2023/03/18 06:16:36;;;;;;;;;;;4.60;99.90;;;;;;5105640;28;19926;-68
2023/03/18 06:19:03;;;;;;;;;;;4.60;99.90;;;;;;5105999;28;20271;-68
2023/03/18 06:21:30;;;;;;;;;;;4.60;99.90;;;;;;5110509;28;19955;-68
2023/03/18 06:23:57;;;;;;;;;;;4.60;99.90;;;;;;5125761;28;19919;-68
2023/03/18 06:26:24;;;;;;;;;;;4.70;99.90;;;;;;5123978;28;19931;-68
2023/03/18 06:28:53;;;;;;;;;;;4.70;99.90;;;;;;5102932;28;19970;-68
2023/03/18 06:31:20;;;;;;;;;;;4.70;99.90;;;;;;5106038;28;19979;-68
2023/03/18 06:33:47;;;;;;;;;;;4.70;99.90;;;;;;5105552;28;19942;-69
2023/03/18 06:36:15;;;;;;;;;;;4.70;99.90;;;;;;5122296;28;19979;-68
2023/03/18 06:38:42;;;;;;;;;;;4.70;99.90;;;;;;5116901;28;19926;-68
2023/03/18 06:41:08;;;;;;;;;;;4.80;99.90;;;;;;5105539;28;19946;-68
2023/03/18 06:43:35;;;;;;;;;;;4.80;99.90;;;;;;5105669;28;19923;-68
2023/03/18 06:46:03;;;;;;;;;;;4.80;99.90;;;;;;5105727;28;19988;-68
2023/03/18 06:48:31;;;;;;;;;;;4.80;99.90;;;;;;5119818;28;20332;-67
2023/03/18 06:50:59;;;;;;;;;;;4.80;99.90;;;;;;5126095;28;19959;-67
2023/03/18 06:53:28;;;;;;;;;;;4.80;99.90;;;;;;5125717;28;19988;-68
2023/03/18 06:55:55;;;;;;;;;;;4.90;99.90;;;;;;5125358;28;19920;-68
2023/03/18 06:58:22;;;;;;;;;;;4.90;99.90;;;;;;5112741;28;19927;-68
2023/03/18 07:00:48;;;;;;;;;;;5.00;99.90;;;;;;5105991;28;20239;-67
2023/03/18 07:03:16;;;;;;;;;;;5.00;99.90;;;;;;5120064;28;19961;-68
2023/03/18 07:05:43;;;;;;;;;;;5.00;99.90;;;;;;5125489;28;19957;-67
2023/03/18 07:08:10;;;;;;;;;;;5.10;99.90;;;;;;5123816;28;19920;-68
2023/03/18 07:10:37;;;;;;;;;;;5.20;99.90;;;;;;5124981;28;19919;-68
2023/03/18 07:13:03;;;;;;;;;;;5.20;99.90;;;;;;5125520;28;19986;-67
2023/03/18 07:15:30;;;;;;;;;;;5.30;99.90;;;;;;5124903;28;19920;-68
2023/03/18 07:17:59;;;;;;;;;;;5.30;99.90;;;;;;5115200;28;19920;-68
2023/03/18 07:20:27;;;;;;;;;;;5.40;99.90;;;;;;5105437;28;19920;-67
2023/03/18 07:22:54;;;;;;;;;;;5.50;99.90;;;;;;5104626;28;19920;-68
2023/03/18 07:25:21;;;;;;;;;;;5.50;99.90;;;;;;5105206;28;20088;-67
2023/03/18 07:27:47;;;;;;;;;;;5.60;99.90;;;;;;5116233;28;19927;-69
2023/03/18 07:30:14;;;;;;;;;;;5.70;99.90;;;;;;5125379;28;19959;-68
2023/03/18 07:32:41;;;;;;;;;;;5.70;99.90;;;;;;5125188;28;20227;-69
2023/03/18 07:35:09;;;;;;;;;;;5.80;99.90;;;;;;5116114;28;19940;-69
2023/03/18 07:37:39;;;;;;;;;;;6.00;99.90;;;;;;5104342;28;19928;-69
2023/03/18 07:40:06;;;;;;;;;;;6.00;99.90;;;;;;5104689;28;19920;-68
2023/03/18 07:42:33;;;;;;;;;;;6.10;99.90;;;;;;5104734;28;19995;-68
2023/03/18 07:45:00;;;;;;;;;;;6.30;99.90;;;;;;5104658;28;19920;-68
2023/03/18 07:47:32;;;;;;;;;;;6.40;99.90;;;;;;5101424;28;20116;-68
2023/03/18 07:49:59;;;;;;;;;;;6.50;99.90;;;;;;5104498;28;19920;-67
2023/03/18 07:52:26;;;;;;;;;;;6.70;99.90;;;;;;5104170;28;19920;-67
2023/03/18 07:54:54;;;;;;;;;;;6.80;99.90;;;;;;5104074;28;19920;-68
2023/03/18 07:57:20;;;;;;;;;;;7.00;99.90;;;;;;5118586;28;20170;-68
2023/03/18 07:59:47;;;;;;;;;;;7.10;99.90;;;;;;5124479;28;20002;-68
2023/03/18 08:02:14;;;;;;;;;;;7.20;99.90;;;;;;5124794;28;19919;-67
2023/03/18 08:04:41;;;;;;;;;;;7.40;99.90;;;;;;5112537;28;20230;-68
2023/03/18 08:07:08;;;;;;;;;;;7.50;99.90;;;;;;5103245;28;19927;-68
2023/03/18 08:09:35;;;;;;;;;;;7.60;99.90;;;;;;5116622;28;19961;-68
2023/03/18 08:12:03;;;;;;;;;;;7.80;99.90;;;;;;5124956;28;19920;-68
2023/03/18 08:14:30;;;;;;;;;;;8.00;99.90;;;;;;5124863;28;19988;-69
2023/03/18 08:16:57;;;;;;;;;;;8.30;99.90;;;;;;5117910;28;19923;-70
2023/03/18 08:19:23;;;;;;;;;;;8.50;99.90;;;;;;5104270;28;19927;-68
2023/03/18 08:21:50;;;;;;;;;;;8.80;99.90;;;;;;5104372;28;19924;-69
2023/03/18 08:24:17;;;;;;;;;;;9.00;99.90;;;;;;5109556;28;19920;-68
2023/03/18 08:26:44;;;;;;;;;;;9.20;99.90;;;;;;5123719;28;19920;-69
2023/03/18 08:29:12;;;;;;;;;;;9.40;99.90;;;;;;5124754;28;19920;-71
2023/03/18 08:31:38;;;;;;;;;;;9.60;99.90;;;;;;5124374;28;19983;-69
2023/03/18 08:34:05;;;;;;;;;;;9.90;99.90;;;;;;5124421;28;20064;-73
2023/03/18 08:36:32;;;;;;;;;;;10.10;99.90;;;;;;5123723;28;19920;-69
2023/03/18 08:39:00;;;;;;;;;;;10.20;99.90;;;;;;5102744;28;19979;-69
2023/03/18 08:41:27;;;;;;;;;;;10.30;99.90;;;;;;5103787;28;20254;-68
2023/03/18 08:43:56;;;;;;;;;;;10.40;99.90;;;;;;5111025;28;20142;-66
2023/03/18 08:46:24;;;;;;;;;;;10.70;99.90;;;;;;5121574;28;19927;-66
2023/03/18 08:48:53;;;;;;;;;;;10.80;99.90;;;;;;5124054;28;19920;-68
2023/03/18 08:51:21;;;;;;;;;;;11.10;99.90;;;;;;5107359;28;19927;-69
2023/03/18 08:53:47;;;;;;;;;;;11.20;99.90;;;;;;5122786;28;19919;-69
2023/03/18 08:56:14;;;;;;;;;;;11.30;99.90;;;;;;5123278;28;19926;-68
2023/03/18 08:58:47;;;;;;;;;;;11.40;99.90;;;;;;5120150;28;19934;-69
2023/03/18 09:01:18;;;;;;;;;;;11.50;99.90;;;;;;5121594;28;19920;-70
2023/03/18 09:03:46;;;;;;;;;;;11.70;99.90;;;;;;5123416;28;19919;-69
2023/03/18 09:06:13;;;;;;;;;;;11.90;99.90;;;;;;5123627;28;19920;-69
2023/03/18 09:08:39;;;;;;;;;;;11.90;99.90;;;;;;5124189;28;19990;-68
2023/03/18 09:11:07;;;;;;;;;;;11.90;99.90;;;;;;5124424;28;20377;-68
2023/03/18 09:13:33;;;;;;;;;;;12.00;99.90;;;;;;5124048;28;19920;-68
2023/03/18 09:16:00;;;;;;;;;;;12.00;99.90;;;;;;5123428;28;19959;-69
2023/03/18 09:18:28;;;;;;;;;;;12.10;99.90;;;;;;5124016;28;19952;-69
2023/03/18 09:20:56;;;;;;;;;;;12.30;99.90;;;;;;5123908;28;19941;-69
2023/03/18 09:23:25;;;;;;;;;;;12.40;99.90;;;;;;5124118;28;19920;-69
2023/03/18 09:25:53;;;;;;;;;;;12.40;99.90;;;;;;5123675;28;19949;-69
2023/03/18 09:28:20;;;;;;;;;;;12.40;99.90;;;;;;5123067;28;19920;-68
2023/03/18 09:30:47;;;;;;;;;;;12.50;99.90;;;;;;5110791;28;19954;-69
2023/03/18 09:33:14;;;;;;;;;;;12.70;99.90;;;;;;5103492;28;19970;-68
2023/03/18 09:35:43;;;;;;;;;;;12.80;99.90;;;;;;5103553;28;19991;-68
2023/03/18 09:38:13;;;;;;;;;;;12.80;99.90;;;;;;5103182;28;19958;-68
2023/03/18 09:40:44;;;;;;;;;;;12.90;99.90;;;;;;5103369;28;19920;-69
2023/03/18 09:43:19;;;;;;;;;;;12.90;99.90;;;;;;5103397;28;19995;-70
2023/03/18 09:45:51;;;;;;;;;;;13.00;99.90;;;;;;5102935;28;19947;-69
2023/03/18 09:48:30;;;;;;;;;;;13.10;99.90;;;;;;5103162;28;19920;-69
2023/03/18 09:51:03;;;;;;;;;;;13.10;99.90;;;;;;5103572;28;19920;-69
2023/03/18 09:53:37;;;;;;;;;;;13.20;99.90;;;;;;5103558;28;19965;-69
2023/03/18 09:56:04;;;;;;;;;;;13.20;99.90;;;;;;5102721;28;19951;-71
2023/03/18 09:58:39;;;;;;;;;;;13.30;99.90;;;;;;5102353;28;19938;-69
2023/03/18 10:01:06;;;;;;;;;;;13.40;99.90;;;;;;5106744;28;19927;-70
2023/03/18 10:03:34;;;;;;;;;;;13.50;99.90;;;;;;5106952;28;20144;-70
2023/03/18 10:06:03;;;;;;;;;;;13.60;99.90;;;;;;5106483;28;19920;-70
2023/03/18 10:08:37;;;;;;;;;;;13.70;99.90;;;;;;5106752;28;19979;-70
2023/03/18 10:11:06;;;;;;;;;;;13.90;99.90;;;;;;5106742;28;19926;-69
2023/03/18 10:13:36;;;;;;;;;;;14.00;99.90;;;;;;5106790;28;19920;-68
2023/03/18 10:16:04;;;;;;;;;;;14.00;99.90;;;;;;5105842;28;20224;-69
2023/03/18 10:18:32;;;;;;;;;;;14.10;99.90;;;;;;5106279;28;19971;-69
2023/03/18 10:21:05;;;;;;;;;;;14.10;99.90;;;;;;5106667;28;19920;-69
2023/03/18 10:23:41;;;;;;;;;;;14.20;99.90;;;;;;5106521;28;19924;-69
2023/03/18 10:26:11;;;;;;;;;;;14.30;99.90;;;;;;5106426;28;19935;-69
2023/03/18 10:29:01;;;;;;;;;;;14.40;99.90;;;;;;5106173;28;19987;-69
2023/03/18 10:31:36;;;;;;;;;;;14.50;99.90;;;;;;5106436;28;19920;-69
2023/03/18 10:34:08;;;;;;;;;;;14.60;99.90;;;;;;5105923;28;19987;-69
2023/03/18 10:36:38;;;;;;;;;;;14.80;99.90;;;;;;5104971;28;20116;-70
2023/03/18 10:39:10;;;;;;;;;;;14.90;99.90;;;;;;5106027;28;19920;-70
2023/03/18 10:41:37;;;;;;;;;;;15.00;99.90;;;;;;5105186;28;19983;-70
2023/03/18 10:44:07;;;;;;;;;;;15.10;99.90;;;;;;5106107;28;20003;-70
2023/03/18 10:46:35;;;;;;;;;;;15.30;99.90;;;;;;5105754;28;19920;-69
2023/03/18 10:49:05;;;;;;;;;;;15.40;99.90;;;;;;5105849;28;19920;-69
2023/03/18 10:51:34;;;;;;;;;;;15.60;99.90;;;;;;5105506;28;19927;-69
2023/03/18 10:54:04;;;;;;;;;;;15.80;99.90;;;;;;5106040;28;20212;-69
2023/03/18 10:56:34;;;;;;;;;;;15.90;99.90;;;;;;5105374;28;19928;-69
2023/03/18 10:59:10;;;;;;;;;;;16.00;99.90;;;;;;5102710;28;19943;-70
2023/03/18 11:01:45;;;;;;;;;;;16.10;99.90;;;;;;5104814;28;19920;-69
2023/03/18 11:04:14;;;;;;;;;;;16.20;99.90;;;;;;5105734;28;19920;-70
2023/03/18 11:06:43;;;;;;;;;;;16.30;99.90;;;;;;5104516;28;19983;-69
2023/03/18 11:09:11;;;;;;;;;;;16.40;99.90;;;;;;5105418;28;20097;-69
2023/03/18 11:11:40;;;;;;;;;;;16.50;99.90;;;;;;5105333;28;19983;-69
2023/03/18 11:14:08;;;;;;;;;;;16.60;99.90;;;;;;5105575;28;19946;-69
2023/03/18 11:16:38;;;;;;;;;;;16.80;99.90;;;;;;5104434;28;19983;-68
2023/03/18 11:19:21;;;;;;;;;;;16.80;99.90;;;;;;5105541;28;19924;-68
2023/03/18 11:21:49;;;;;;;;;;;16.90;99.90;;;;;;5105323;28;19926;-70
2023/03/18 11:24:34;;;;;;;;;;;16.90;99.90;;;;;;5104796;28;19951;-70
2023/03/18 11:27:03;;;;;;;;;;;17.10;99.90;;;;;;5112099;28;20157;-69
2023/03/18 11:29:32;;;;;;;;;;;17.20;99.90;;;;;;5125426;28;20229;-69
2023/03/18 11:32:00;;;;;;;;;;;17.40;99.90;;;;;;5125428;28;20138;-70
2023/03/18 11:34:29;;;;;;;;;;;17.40;99.90;;;;;;5125484;28;20084;-69
2023/03/18 11:36:59;;;;;;;;;;;17.50;99.90;;;;;;5124495;28;19983;-70
2023/03/18 11:39:28;;;;;;;;;;;17.60;99.90;;;;;;5125345;28;20092;-70
2023/03/18 11:41:55;;;;;;;;;;;17.70;99.90;;;;;;5125255;28;19942;-69
2023/03/18 11:44:27;;;;;;;;;;;17.80;99.90;;;;;;5124996;28;20211;-70
2023/03/18 11:46:55;;;;;;;;;;;18.00;99.90;;;;;;5124297;28;19991;-70
2023/03/18 11:49:23;;;;;;;;;;;18.20;99.90;;;;;;5125108;28;19969;-71
2023/03/18 11:51:54;;;;;;;;;;;18.20;99.90;;;;;;5125033;28;20165;-70
2023/03/18 11:54:38;;;;;;;;;;;18.30;99.90;;;;;;5125147;28;20003;-69
2023/03/18 11:57:09;;;;;;;;;;;18.40;99.90;;;;;;5124299;28;19920;-69
2023/03/18 11:59:42;;;;;;;;;;;18.60;99.90;;;;;;5124671;28;20119;-69
2023/03/18 12:02:18;;;;;;;;;;;18.70;99.90;;;;;;5124413;28;19954;-70
2023/03/18 12:05:07;;;;;;;;;;;18.90;99.90;;;;;;5124784;28;19919;-70
2023/03/18 12:07:46;;;;;;;;;;;19.00;99.90;;;;;;5124012;28;19956;-69
2023/03/18 12:10:15;;;;;;;;;;;19.10;99.90;;;;;;5125122;28;19920;-70
2023/03/18 12:12:48;;;;;;;;;;;19.10;99.90;;;;;;5124689;28;19920;-69
2023/03/18 12:15:20;;;;;;;;;;;19.20;99.90;;;;;;5124259;28;19920;-69
2023/03/18 12:17:51;;;;;;;;;;;19.30;99.90;;;;;;5123841;28;19920;-70
2023/03/18 12:20:28;;;;;;;;;;;19.40;99.90;;;;;;5124094;28;20110;-69
2023/03/18 12:23:05;;;;;;;;;;;19.60;99.90;;;;;;5124762;28;19920;-69
2023/03/18 12:25:37;;;;;;;;;;;19.50;99.90;;;;;;5123272;28;19963;-71
2023/03/18 12:28:09;;;;;;;;;;;19.60;99.90;;;;;;5110319;28;19955;-72
2023/03/18 12:30:47;;;;;;;;;;;19.60;99.80;;;;;;5104379;28;19920;-70
2023/03/18 12:33:19;;;;;;;;;;;19.60;99.90;;;;;;5104063;28;19920;-69
2023/03/18 12:35:52;;;;;;;;;;;19.80;99.90;;;;;;5103646;28;19920;-70
2023/03/18 12:38:32;;;;;;;;;;;20.00;99.60;;;;;;5104057;28;19987;-69
2023/03/18 12:41:03;;;;;;;;;;;20.10;98.20;;;;;;5104258;28;19926;-70
2023/03/18 12:43:38;;;;;;;;;;;20.20;98.50;;;;;;5103960;28;19920;-69
2023/03/18 12:46:10;;;;;;;;;;;20.30;98.00;;;;;;5103711;28;19924;-70
2023/03/18 12:48:38;;;;;;;;;;;20.50;99.10;;;;;;5122177;28;19955;-70
2023/03/18 12:51:07;;;;;;;;;;;20.70;97.80;;;;;;5124526;28;19919;-70
2023/03/18 12:53:35;;;;;;;;;;;20.90;97.10;;;;;;5123932;28;19982;-70
2023/03/18 12:56:04;;;;;;;;;;;20.90;96.60;;;;;;5123462;28;19931;-70
2023/03/18 12:58:39;;;;;;;;;;;20.90;96.70;;;;;;5122059;28;19928;-70
2023/03/18 13:01:10;;;;;;;;;;;20.60;95.50;;;;;;5122283;28;20262;-70
2023/03/18 13:03:39;;;;;;;;;;;20.70;97.00;;;;;;5124361;28;19920;-69
2023/03/18 13:06:07;;;;;;;;;;;20.80;96.00;;;;;;5124082;28;19969;-70
2023/03/18 13:08:49;;;;;;;;;;;20.80;95.30;;;;;;5113313;28;20351;-70
2023/03/18 13:11:28;;;;;;;;;;;20.80;95.30;;;;;;5103626;28;20115;-70
2023/03/18 13:13:59;;;;;;;;;;;21.00;96.90;;;;;;5103760;28;19926;-70
2023/03/18 13:16:28;;;;;;;;;;;21.10;95.30;;;;;;5103196;28;19924;-70
2023/03/18 13:18:56;;;;;;;;;;;21.20;95.10;;;;;;5103368;28;19920;-69
2023/03/18 13:21:24;;;;;;;;;;;21.30;95.50;;;;;;5103638;28;19921;-70
2023/03/18 13:24:05;;;;;;;;;;;21.30;94.80;;;;;;5103673;28;19920;-70
2023/03/18 13:26:41;;;;;;;;;;;21.30;95.10;;;;;;5100110;28;20225;-70
2023/03/18 13:29:15;;;;;;;;;;;21.10;93.80;;;;;;5103812;28;19955;-70
2023/03/18 13:31:48;;;;;;;;;;;20.90;94.40;;;;;;5103774;28;19958;-70
2023/03/18 13:34:33;;;;;;;;;;;20.80;94.30;;;;;;5106307;28;19920;-70
2023/03/18 13:37:08;;;;;;;;;;;20.50;94.90;;;;;;5107026;28;19966;-69
2023/03/18 13:39:43;;;;;;;;;;;20.10;95.70;;;;;;5107118;28;19942;-69
2023/03/18 13:42:18;;;;;;;;;;;20.10;95.00;;;;;;5107258;28;19958;-69
2023/03/18 13:44:48;;;;;;;;;;;20.00;96.40;;;;;;5119773;28;19919;-69
2023/03/18 13:47:17;;;;;;;;;;;20.00;97.30;;;;;;5127253;28;19919;-69
2023/03/18 13:49:44;;;;;;;;;;;19.90;96.60;;;;;;5127650;28;20003;-69
2023/03/18 13:52:22;;;;;;;;;;;19.90;96.70;;;;;;5127670;28;19920;-69
2023/03/18 13:54:50;;;;;;;;;;;19.80;97.60;;;;;;5127616;28;19919;-71
2023/03/18 13:57:18;;;;;;;;;;;19.90;97.90;;;;;;5127436;28;19955;-71
2023/03/18 13:59:46;;;;;;;;;;;19.80;98.00;;;;;;5127604;28;19982;-71
2023/03/18 14:02:33;;;;;;;;;;;19.80;98.00;;;;;;5124417;28;20203;-70
2023/03/18 14:05:00;;;;;;;;;;;19.80;98.00;;;;;;5126686;28;19942;-70
2023/03/18 14:07:27;;;;;;;;;;;19.80;96.90;;;;;;5126444;28;19961;-69
2023/03/18 14:09:55;;;;;;;;;;;20.00;97.50;;;;;;5127202;28;19951;-69
2023/03/18 14:12:40;;;;;;;;;;;20.00;96.20;;;;;;5127180;28;19920;-69
2023/03/18 14:15:26;;;;;;;;;;;20.10;96.30;;;;;;5127084;28;19926;-70
2023/03/18 14:17:57;;;;;;;;;;;20.10;96.20;;;;;;5126921;28;19930;-70
2023/03/18 14:20:26;;;;;;;;;;;20.10;96.60;;;;;;5126985;28;19920;-70
2023/03/18 14:22:53;;;;;;;;;;;20.10;97.10;;;;;;5126452;28;19920;-70
2023/03/18 14:25:23;;;;;;;;;;;20.00;97.00;;;;;;5126459;28;19935;-70
2023/03/18 14:27:51;;;;;;;;;;;19.80;96.70;;;;;;5126351;28;19920;-70
2023/03/18 14:30:27;;;;;;;;;;;19.70;96.90;;;;;;5126903;28;19924;-69
2023/03/18 14:32:58;;;;;;;;;;;19.60;97.70;;;;;;5126526;28;19979;-69